sensor_id;sensor_type;location;lat;lon;timestamp;P1;durP1;ratioP1;P2;durP2;ratioP2
37657;SDS011;23500;53.268;8.308;2022-09-29T00:01:32;15.48;;;14.38;;
37657;SDS011;23500;53.268;8.308;2022-09-29T00:03:57;15.32;;;14.02;;
37657;SDS011;23500;53.268;8.308;2022-09-29T00:06:23;15.32;;;14.13;;
37657;SDS011;23500;53.268;8.308;2022-09-29T00:08:49;15.70;;;14.50;;
37657;SDS011;23500;53.268;8.308;2022-09-29T00:11:15;16.17;;;14.77;;
37657;SDS011;23500;53.268;8.308;2022-09-29T00:13:43;15.38;;;14.27;;
37657;SDS011;23500;53.268;8.308;2022-09-29T00:16:10;15.25;;;14.05;;
37657;SDS011;23500;53.268;8.308;2022-09-29T00:18:36;15.47;;;14.27;;
37657;SDS011;23500;53.268;8.308;2022-09-29T00:21:04;15.20;;;14.10;;
37657;SDS011;23500;53.268;8.308;2022-09-29T00:23:32;15.60;;;14.40;;
37657;SDS011;23500;53.268;8.308;2022-09-29T00:26:09;15.15;;;13.95;;
37657;SDS011;23500;53.268;8.308;2022-09-29T00:28:40;15.45;;;14.23;;
37657;SDS011;23500;53.268;8.308;2022-09-29T00:31:10;14.40;;;13.30;;
37657;SDS011;23500;53.268;8.308;2022-09-29T00:33:36;15.05;;;13.82;;
37657;SDS011;23500;53.268;8.308;2022-09-29T00:36:06;14.73;;;13.40;;
37657;SDS011;23500;53.268;8.308;2022-09-29T00:38:34;14.67;;;13.57;;
37657;SDS011;23500;53.268;8.308;2022-09-29T00:41:00;14.90;;;13.70;;
37657;SDS011;23500;53.268;8.308;2022-09-29T00:46:19;15.02;;;13.75;;
37657;SDS011;23500;53.268;8.308;2022-09-29T00:48:47;13.90;;;12.85;;
37657;SDS011;23500;53.268;8.308;2022-09-29T00:51:13;13.45;;;12.45;;
37657;SDS011;23500;53.268;8.308;2022-09-29T00:53:40;14.32;;;13.18;;
37657;SDS011;23500;53.268;8.308;2022-09-29T00:56:09;13.93;;;12.90;;
37657;SDS011;23500;53.268;8.308;2022-09-29T01:01:22;14.23;;;13.13;;
37657;SDS011;23500;53.268;8.308;2022-09-29T01:03:51;13.43;;;12.32;;
37657;SDS011;23500;53.268;8.308;2022-09-29T01:07:06;14.20;;;13.02;;
37657;SDS011;23500;53.268;8.308;2022-09-29T01:09:13;13.93;;;12.83;;
37657;SDS011;23500;53.268;8.308;2022-09-29T01:11:42;12.80;;;11.80;;
37657;SDS011;23500;53.268;8.308;2022-09-29T01:14:08;13.03;;;12.03;;
37657;SDS011;23500;53.268;8.308;2022-09-29T01:16:35;12.90;;;12.00;;
37657;SDS011;23500;53.268;8.308;2022-09-29T01:19:14;13.23;;;12.23;;
37657;SDS011;23500;53.268;8.308;2022-09-29T01:32:42;13.03;;;11.97;;
37657;SDS011;23500;53.268;8.308;2022-09-29T01:41:23;12.60;;;11.70;;
37657;SDS011;23500;53.268;8.308;2022-09-29T01:46:46;11.93;;;11.02;;
37657;SDS011;23500;53.268;8.308;2022-09-29T01:49:33;11.80;;;10.90;;
37657;SDS011;23500;53.268;8.308;2022-09-29T01:52:07;12.15;;;11.05;;
37657;SDS011;23500;53.268;8.308;2022-09-29T01:55:19;11.87;;;10.97;;
37657;SDS011;23500;53.268;8.308;2022-09-29T01:57:32;11.70;;;10.80;;
37657;SDS011;23500;53.268;8.308;2022-09-29T02:00:35;12.27;;;11.27;;
37657;SDS011;23500;53.268;8.308;2022-09-29T02:05:44;12.07;;;11.13;;
37657;SDS011;23500;53.268;8.308;2022-09-29T02:08:17;11.88;;;10.93;;
37657;SDS011;23500;53.268;8.308;2022-09-29T02:10:50;12.00;;;11.00;;
37657;SDS011;23500;53.268;8.308;2022-09-29T02:13:26;11.32;;;10.52;;
37657;SDS011;23500;53.268;8.308;2022-09-29T02:16:00;11.17;;;10.30;;
37657;SDS011;23500;53.268;8.308;2022-09-29T02:18:30;10.80;;;10.00;;
37657;SDS011;23500;53.268;8.308;2022-09-29T02:21:01;11.93;;;11.02;;
37657;SDS011;23500;53.268;8.308;2022-09-29T02:23:27;10.97;;;10.20;;
37657;SDS011;23500;53.268;8.308;2022-09-29T02:25:52;11.30;;;10.40;;
37657;SDS011;23500;53.268;8.308;2022-09-29T02:28:21;11.50;;;10.60;;
37657;SDS011;23500;53.268;8.308;2022-09-29T02:30:48;10.60;;;9.80;;
37657;SDS011;23500;53.268;8.308;2022-09-29T02:33:19;11.23;;;10.43;;
37657;SDS011;23500;53.268;8.308;2022-09-29T02:35:58;11.17;;;10.30;;
37657;SDS011;23500;53.268;8.308;2022-09-29T02:38:47;10.40;;;9.60;;
37657;SDS011;23500;53.268;8.308;2022-09-29T02:41:31;11.20;;;10.30;;
37657;SDS011;23500;53.268;8.308;2022-09-29T02:49:22;10.50;;;9.70;;
37657;SDS011;23500;53.268;8.308;2022-09-29T02:55:02;10.40;;;9.60;;
37657;SDS011;23500;53.268;8.308;2022-09-29T03:00:18;10.80;;;10.00;;
37657;SDS011;23500;53.268;8.308;2022-09-29T03:02:44;10.30;;;9.50;;
37657;SDS011;23500;53.268;8.308;2022-09-29T03:05:14;9.63;;;8.93;;
37657;SDS011;23500;53.268;8.308;2022-09-29T03:07:42;10.00;;;9.30;;
37657;SDS011;23500;53.268;8.308;2022-09-29T03:10:08;10.00;;;9.20;;
37657;SDS011;23500;53.268;8.308;2022-09-29T03:12:35;10.13;;;9.33;;
37657;SDS011;23500;53.268;8.308;2022-09-29T03:15:01;10.27;;;9.47;;
37657;SDS011;23500;53.268;8.308;2022-09-29T03:17:27;10.10;;;9.40;;
37657;SDS011;23500;53.268;8.308;2022-09-29T03:19:52;9.50;;;8.80;;
37657;SDS011;23500;53.268;8.308;2022-09-29T03:22:18;9.53;;;8.83;;
37657;SDS011;23500;53.268;8.308;2022-09-29T03:24:44;9.77;;;9.07;;
37657;SDS011;23500;53.268;8.308;2022-09-29T03:27:10;9.20;;;8.50;;
37657;SDS011;23500;53.268;8.308;2022-09-29T03:29:36;9.35;;;8.65;;
37657;SDS011;23500;53.268;8.308;2022-09-29T03:32:02;9.10;;;8.50;;
37657;SDS011;23500;53.268;8.308;2022-09-29T03:34:28;9.73;;;9.03;;
37657;SDS011;23500;53.268;8.308;2022-09-29T03:36:54;9.40;;;8.60;;
37657;SDS011;23500;53.268;8.308;2022-09-29T03:39:20;9.45;;;8.55;;
37657;SDS011;23500;53.268;8.308;2022-09-29T03:41:46;9.43;;;8.73;;
37657;SDS011;23500;53.268;8.308;2022-09-29T03:44:12;9.15;;;8.45;;
37657;SDS011;23500;53.268;8.308;2022-09-29T03:46:37;8.97;;;8.37;;
37657;SDS011;23500;53.268;8.308;2022-09-29T03:49:03;8.93;;;8.23;;
37657;SDS011;23500;53.268;8.308;2022-09-29T03:51:29;8.93;;;8.30;;
37657;SDS011;23500;53.268;8.308;2022-09-29T03:53:54;9.52;;;8.80;;
37657;SDS011;23500;53.268;8.308;2022-09-29T03:56:20;9.30;;;8.37;;
37657;SDS011;23500;53.268;8.308;2022-09-29T03:58:46;8.95;;;8.13;;
37657;SDS011;23500;53.268;8.308;2022-09-29T04:01:11;8.90;;;8.23;;
37657;SDS011;23500;53.268;8.308;2022-09-29T04:03:37;8.82;;;8.13;;
37657;SDS011;23500;53.268;8.308;2022-09-29T04:06:03;9.00;;;8.30;;
37657;SDS011;23500;53.268;8.308;2022-09-29T04:08:28;9.00;;;8.20;;
37657;SDS011;23500;53.268;8.308;2022-09-29T04:10:54;8.52;;;7.82;;
37657;SDS011;23500;53.268;8.308;2022-09-29T04:13:20;8.50;;;7.90;;
37657;SDS011;23500;53.268;8.308;2022-09-29T04:15:46;8.17;;;7.57;;
37657;SDS011;23500;53.268;8.308;2022-09-29T04:18:13;8.20;;;7.63;;
37657;SDS011;23500;53.268;8.308;2022-09-29T04:20:38;8.50;;;7.90;;
37657;SDS011;23500;53.268;8.308;2022-09-29T04:23:04;8.07;;;7.47;;
37657;SDS011;23500;53.268;8.308;2022-09-29T04:25:30;7.60;;;7.10;;
37657;SDS011;23500;53.268;8.308;2022-09-29T04:27:57;8.80;;;8.17;;
37657;SDS011;23500;53.268;8.308;2022-09-29T04:30:23;8.03;;;7.50;;
37657;SDS011;23500;53.268;8.308;2022-09-29T04:32:49;8.05;;;7.43;;
37657;SDS011;23500;53.268;8.308;2022-09-29T04:35:14;8.20;;;7.60;;
37657;SDS011;23500;53.268;8.308;2022-09-29T04:37:40;8.40;;;7.70;;
37657;SDS011;23500;53.268;8.308;2022-09-29T04:40:06;8.23;;;7.63;;
37657;SDS011;23500;53.268;8.308;2022-09-29T04:42:32;7.77;;;7.17;;
37657;SDS011;23500;53.268;8.308;2022-09-29T04:44:58;7.47;;;6.80;;
37657;SDS011;23500;53.268;8.308;2022-09-29T04:47:24;7.85;;;7.25;;
37657;SDS011;23500;53.268;8.308;2022-09-29T04:49:49;8.40;;;7.80;;
37657;SDS011;23500;53.268;8.308;2022-09-29T04:52:15;7.63;;;7.13;;
37657;SDS011;23500;53.268;8.308;2022-09-29T04:54:41;7.80;;;7.20;;
37657;SDS011;23500;53.268;8.308;2022-09-29T04:57:06;7.57;;;7.07;;
37657;SDS011;23500;53.268;8.308;2022-09-29T04:59:33;7.30;;;6.80;;
37657;SDS011;23500;53.268;8.308;2022-09-29T05:01:59;7.23;;;6.73;;
37657;SDS011;23500;53.268;8.308;2022-09-29T05:04:25;7.93;;;7.33;;
37657;SDS011;23500;53.268;8.308;2022-09-29T05:06:50;7.43;;;6.82;;
37657;SDS011;23500;53.268;8.308;2022-09-29T05:09:16;7.73;;;7.20;;
37657;SDS011;23500;53.268;8.308;2022-09-29T05:11:42;7.60;;;7.00;;
37657;SDS011;23500;53.268;8.308;2022-09-29T05:14:09;8.07;;;7.30;;
37657;SDS011;23500;53.268;8.308;2022-09-29T05:16:35;7.88;;;7.28;;
37657;SDS011;23500;53.268;8.308;2022-09-29T05:19:00;7.50;;;6.90;;
37657;SDS011;23500;53.268;8.308;2022-09-29T05:21:26;7.10;;;6.60;;
37657;SDS011;23500;53.268;8.308;2022-09-29T05:23:52;7.27;;;6.70;;
37657;SDS011;23500;53.268;8.308;2022-09-29T05:26:18;7.07;;;6.50;;
37657;SDS011;23500;53.268;8.308;2022-09-29T05:28:44;6.97;;;6.47;;
37657;SDS011;23500;53.268;8.308;2022-09-29T05:31:11;6.97;;;6.47;;
37657;SDS011;23500;53.268;8.308;2022-09-29T05:33:37;7.23;;;6.53;;
37657;SDS011;23500;53.268;8.308;2022-09-29T05:36:03;6.97;;;6.43;;
37657;SDS011;23500;53.268;8.308;2022-09-29T05:38:31;6.80;;;6.30;;
37657;SDS011;23500;53.268;8.308;2022-09-29T05:40:57;6.70;;;6.20;;
37657;SDS011;23500;53.268;8.308;2022-09-29T05:43:28;7.10;;;6.57;;
37657;SDS011;23500;53.268;8.308;2022-09-29T05:45:58;7.10;;;6.53;;
37657;SDS011;23500;53.268;8.308;2022-09-29T05:48:28;8.20;;;6.60;;
37657;SDS011;23500;53.268;8.308;2022-09-29T05:50:55;9.80;;;6.33;;
37657;SDS011;23500;53.268;8.308;2022-09-29T05:53:24;6.93;;;6.27;;
37657;SDS011;23500;53.268;8.308;2022-09-29T05:55:50;8.30;;;6.73;;
37657;SDS011;23500;53.268;8.308;2022-09-29T05:58:16;7.78;;;6.97;;
37657;SDS011;23500;53.268;8.308;2022-09-29T06:00:42;10.93;;;7.33;;
37657;SDS011;23500;53.268;8.308;2022-09-29T06:03:07;8.88;;;7.13;;
37657;SDS011;23500;53.268;8.308;2022-09-29T06:05:36;10.23;;;7.55;;
37657;SDS011;23500;53.268;8.308;2022-09-29T06:08:03;10.57;;;7.63;;
37657;SDS011;23500;53.268;8.308;2022-09-29T06:10:29;12.73;;;8.33;;
37657;SDS011;23500;53.268;8.308;2022-09-29T06:12:55;15.35;;;8.50;;
37657;SDS011;23500;53.268;8.308;2022-09-29T06:15:21;11.98;;;8.13;;
37657;SDS011;23500;53.268;8.308;2022-09-29T06:17:53;16.52;;;7.80;;
37657;SDS011;23500;53.268;8.308;2022-09-29T06:20:23;14.77;;;8.27;;
37657;SDS011;23500;53.268;8.308;2022-09-29T06:22:52;18.58;;;8.70;;
37657;SDS011;23500;53.268;8.308;2022-09-29T06:25:18;12.48;;;9.50;;
37657;SDS011;23500;53.268;8.308;2022-09-29T06:27:44;15.38;;;8.65;;
37657;SDS011;23500;53.268;8.308;2022-09-29T06:30:09;15.32;;;8.77;;
37657;SDS011;23500;53.268;8.308;2022-09-29T06:32:37;17.55;;;8.70;;
37657;SDS011;23500;53.268;8.308;2022-09-29T06:35:03;19.17;;;8.27;;
37657;SDS011;23500;53.268;8.308;2022-09-29T06:37:48;19.73;;;8.82;;
37657;SDS011;23500;53.268;8.308;2022-09-29T06:40:16;14.88;;;8.80;;
37657;SDS011;23500;53.268;8.308;2022-09-29T06:42:41;20.17;;;8.85;;
37657;SDS011;23500;53.268;8.308;2022-09-29T06:45:08;19.23;;;8.85;;
37657;SDS011;23500;53.268;8.308;2022-09-29T06:47:35;18.25;;;9.55;;
37657;SDS011;23500;53.268;8.308;2022-09-29T06:50:00;17.90;;;9.13;;
37657;SDS011;23500;53.268;8.308;2022-09-29T06:52:26;20.00;;;9.18;;
37657;SDS011;23500;53.268;8.308;2022-09-29T06:54:52;16.88;;;9.15;;
37657;SDS011;23500;53.268;8.308;2022-09-29T06:57:18;19.13;;;9.18;;
37657;SDS011;23500;53.268;8.308;2022-09-29T06:59:44;17.60;;;8.43;;
37657;SDS011;23500;53.268;8.308;2022-09-29T07:02:10;16.60;;;8.82;;
37657;SDS011;23500;53.268;8.308;2022-09-29T07:04:36;17.20;;;9.23;;
37657;SDS011;23500;53.268;8.308;2022-09-29T07:07:02;14.57;;;8.45;;
37657;SDS011;23500;53.268;8.308;2022-09-29T07:09:28;19.05;;;8.88;;
37657;SDS011;23500;53.268;8.308;2022-09-29T07:11:53;16.88;;;8.63;;
37657;SDS011;23500;53.268;8.308;2022-09-29T07:14:20;15.63;;;8.80;;
37657;SDS011;23500;53.268;8.308;2022-09-29T07:16:46;17.63;;;8.43;;
37657;SDS011;23500;53.268;8.308;2022-09-29T07:19:13;16.90;;;9.02;;
37657;SDS011;23500;53.268;8.308;2022-09-29T07:21:40;20.65;;;8.85;;
37657;SDS011;23500;53.268;8.308;2022-09-29T07:24:06;13.73;;;9.00;;
37657;SDS011;23500;53.268;8.308;2022-09-29T07:26:33;17.23;;;8.90;;
37657;SDS011;23500;53.268;8.308;2022-09-29T07:28:59;15.55;;;9.25;;
37657;SDS011;23500;53.268;8.308;2022-09-29T07:31:24;14.57;;;8.98;;
37657;SDS011;23500;53.268;8.308;2022-09-29T07:33:50;18.20;;;8.80;;
37657;SDS011;23500;53.268;8.308;2022-09-29T07:36:17;15.20;;;8.38;;
37657;SDS011;23500;53.268;8.308;2022-09-29T07:38:48;17.45;;;8.30;;
37657;SDS011;23500;53.268;8.308;2022-09-29T07:41:14;16.05;;;8.80;;
37657;SDS011;23500;53.268;8.308;2022-09-29T07:43:42;13.68;;;8.27;;
37657;SDS011;23500;53.268;8.308;2022-09-29T07:46:07;15.20;;;8.30;;
37657;SDS011;23500;53.268;8.308;2022-09-29T07:48:34;12.52;;;7.97;;
37657;SDS011;23500;53.268;8.308;2022-09-29T07:51:01;16.25;;;8.18;;
37657;SDS011;23500;53.268;8.308;2022-09-29T07:53:29;17.85;;;8.57;;
37657;SDS011;23500;53.268;8.308;2022-09-29T07:55:55;16.02;;;7.95;;
37657;SDS011;23500;53.268;8.308;2022-09-29T07:58:25;14.20;;;7.50;;
37657;SDS011;23500;53.268;8.308;2022-09-29T08:00:54;13.05;;;8.38;;
37657;SDS011;23500;53.268;8.308;2022-09-29T08:03:20;13.63;;;7.65;;
37657;SDS011;23500;53.268;8.308;2022-09-29T08:05:46;14.48;;;7.63;;
37657;SDS011;23500;53.268;8.308;2022-09-29T08:08:11;13.63;;;7.63;;
37657;SDS011;23500;53.268;8.308;2022-09-29T08:10:37;14.48;;;7.90;;
37657;SDS011;23500;53.268;8.308;2022-09-29T08:13:03;11.32;;;7.15;;
37657;SDS011;23500;53.268;8.308;2022-09-29T08:15:28;15.27;;;8.00;;
37657;SDS011;23500;53.268;8.308;2022-09-29T08:17:54;13.57;;;7.70;;
37657;SDS011;23500;53.268;8.308;2022-09-29T08:20:21;15.98;;;8.00;;
37657;SDS011;23500;53.268;8.308;2022-09-29T08:22:47;12.00;;;7.80;;
37657;SDS011;23500;53.268;8.308;2022-09-29T08:25:16;13.48;;;7.60;;
37657;SDS011;23500;53.268;8.308;2022-09-29T08:27:42;13.27;;;7.97;;
37657;SDS011;23500;53.268;8.308;2022-09-29T08:30:08;12.27;;;7.45;;
37657;SDS011;23500;53.268;8.308;2022-09-29T08:32:35;14.07;;;7.35;;
37657;SDS011;23500;53.268;8.308;2022-09-29T08:35:01;13.20;;;7.78;;
37657;SDS011;23500;53.268;8.308;2022-09-29T08:37:27;12.98;;;7.82;;
37657;SDS011;23500;53.268;8.308;2022-09-29T08:39:53;11.55;;;7.38;;
37657;SDS011;23500;53.268;8.308;2022-09-29T08:45:11;12.07;;;7.40;;
37657;SDS011;23500;53.268;8.308;2022-09-29T08:47:44;14.00;;;7.63;;
37657;SDS011;23500;53.268;8.308;2022-09-29T08:50:30;11.13;;;6.93;;
37657;SDS011;23500;53.268;8.308;2022-09-29T08:53:00;11.63;;;6.97;;
37657;SDS011;23500;53.268;8.308;2022-09-29T08:58:21;12.05;;;7.22;;
37657;SDS011;23500;53.268;8.308;2022-09-29T09:00:57;12.50;;;7.53;;
37657;SDS011;23500;53.268;8.308;2022-09-29T09:11:21;11.88;;;7.00;;
37657;SDS011;23500;53.268;8.308;2022-09-29T09:17:58;9.25;;;6.50;;
37657;SDS011;23500;53.268;8.308;2022-09-29T09:23:16;11.20;;;6.78;;
37657;SDS011;23500;53.268;8.308;2022-09-29T09:25:46;10.25;;;6.95;;
37657;SDS011;23500;53.268;8.308;2022-09-29T09:31:09;10.77;;;6.57;;
37657;SDS011;23500;53.268;8.308;2022-09-29T09:33:42;10.75;;;7.20;;
37657;SDS011;23500;53.268;8.308;2022-09-29T09:36:18;9.27;;;6.40;;
37657;SDS011;23500;53.268;8.308;2022-09-29T09:38:52;11.80;;;6.95;;
37657;SDS011;23500;53.268;8.308;2022-09-29T09:41:25;11.38;;;6.65;;
37657;SDS011;23500;53.268;8.308;2022-09-29T09:43:57;10.90;;;7.03;;
37657;SDS011;23500;53.268;8.308;2022-09-29T09:46:30;9.48;;;7.03;;
37657;SDS011;23500;53.268;8.308;2022-09-29T09:54:35;9.98;;;6.63;;
37657;SDS011;23500;53.268;8.308;2022-09-29T10:02:16;9.77;;;6.40;;
37657;SDS011;23500;53.268;8.308;2022-09-29T10:04:44;10.50;;;6.22;;
37657;SDS011;23500;53.268;8.308;2022-09-29T10:07:16;10.05;;;6.90;;
37657;SDS011;23500;53.268;8.308;2022-09-29T10:09:43;8.45;;;6.32;;
37657;SDS011;23500;53.268;8.308;2022-09-29T10:12:13;7.97;;;6.03;;
37657;SDS011;23500;53.268;8.308;2022-09-29T10:14:44;8.38;;;6.20;;
37657;SDS011;23500;53.268;8.308;2022-09-29T10:17:24;9.38;;;6.47;;
37657;SDS011;23500;53.268;8.308;2022-09-29T10:22:22;8.90;;;6.47;;
37657;SDS011;23500;53.268;8.308;2022-09-29T10:24:53;9.98;;;6.50;;
37657;SDS011;23500;53.268;8.308;2022-09-29T10:27:40;12.77;;;6.80;;
37657;SDS011;23500;53.268;8.308;2022-09-29T10:30:49;10.38;;;6.25;;
37657;SDS011;23500;53.268;8.308;2022-09-29T10:33:00;8.57;;;6.15;;
37657;SDS011;23500;53.268;8.308;2022-09-29T10:35:38;8.35;;;6.18;;
37657;SDS011;23500;53.268;8.308;2022-09-29T10:38:05;9.50;;;6.50;;
37657;SDS011;23500;53.268;8.308;2022-09-29T10:40:52;8.13;;;6.03;;
37657;SDS011;23500;53.268;8.308;2022-09-29T10:43:27;9.27;;;6.43;;
37657;SDS011;23500;53.268;8.308;2022-09-29T10:49:16;9.15;;;6.20;;
37657;SDS011;23500;53.268;8.308;2022-09-29T10:51:53;9.00;;;6.40;;
37657;SDS011;23500;53.268;8.308;2022-09-29T10:54:25;7.97;;;6.00;;
37657;SDS011;23500;53.268;8.308;2022-09-29T10:56:53;8.65;;;6.32;;
37657;SDS011;23500;53.268;8.308;2022-09-29T10:59:21;7.75;;;5.85;;
37657;SDS011;23500;53.268;8.308;2022-09-29T11:01:50;6.97;;;5.80;;
37657;SDS011;23500;53.268;8.308;2022-09-29T11:07:11;8.27;;;5.90;;
37657;SDS011;23500;53.268;8.308;2022-09-29T11:09:41;7.82;;;5.38;;
37657;SDS011;23500;53.268;8.308;2022-09-29T11:14:54;9.10;;;6.60;;
37657;SDS011;23500;53.268;8.308;2022-09-29T11:19:49;8.52;;;5.97;;
37657;SDS011;23500;53.268;8.308;2022-09-29T11:23:01;9.43;;;5.85;;
37657;SDS011;23500;53.268;8.308;2022-09-29T11:31:21;6.85;;;5.07;;
37657;SDS011;23500;53.268;8.308;2022-09-29T11:45:09;7.50;;;5.93;;
37657;SDS011;23500;53.268;8.308;2022-09-29T11:58:31;6.90;;;5.03;;
37657;SDS011;23500;53.268;8.308;2022-09-29T12:03:48;8.60;;;5.80;;
37657;SDS011;23500;53.268;8.308;2022-09-29T12:06:42;8.07;;;5.63;;
37657;SDS011;23500;53.268;8.308;2022-09-29T12:17:47;6.97;;;5.32;;
37657;SDS011;23500;53.268;8.308;2022-09-29T12:20:27;6.95;;;5.65;;
37657;SDS011;23500;53.268;8.308;2022-09-29T12:22:56;7.55;;;5.60;;
37657;SDS011;23500;53.268;8.308;2022-09-29T12:25:26;8.60;;;5.45;;
37657;SDS011;23500;53.268;8.308;2022-09-29T12:27:59;6.35;;;4.72;;
37657;SDS011;23500;53.268;8.308;2022-09-29T12:30:36;7.10;;;5.38;;
37657;SDS011;23500;53.268;8.308;2022-09-29T12:38:35;7.30;;;5.15;;
37657;SDS011;23500;53.268;8.308;2022-09-29T12:41:20;6.90;;;5.15;;
37657;SDS011;23500;53.268;8.308;2022-09-29T12:46:57;6.82;;;4.82;;
37657;SDS011;23500;53.268;8.308;2022-09-29T12:50:08;6.47;;;5.00;;
37657;SDS011;23500;53.268;8.308;2022-09-29T12:53:02;6.13;;;4.70;;
37657;SDS011;23500;53.268;8.308;2022-09-29T12:55:57;5.75;;;4.78;;
37657;SDS011;23500;53.268;8.308;2022-09-29T12:58:35;6.15;;;4.68;;
37657;SDS011;23500;53.268;8.308;2022-09-29T13:01:22;6.47;;;4.82;;
37657;SDS011;23500;53.268;8.308;2022-09-29T13:17:25;5.13;;;4.45;;
37657;SDS011;23500;53.268;8.308;2022-09-29T13:23:23;6.53;;;4.68;;
37657;SDS011;23500;53.268;8.308;2022-09-29T13:28:34;6.07;;;4.55;;
37657;SDS011;23500;53.268;8.308;2022-09-29T13:31:10;5.95;;;4.22;;
37657;SDS011;23500;53.268;8.308;2022-09-29T13:33:45;5.40;;;4.38;;
37657;SDS011;23500;53.268;8.308;2022-09-29T13:36:24;4.95;;;4.40;;
37657;SDS011;23500;53.268;8.308;2022-09-29T13:38:54;4.90;;;4.13;;
37657;SDS011;23500;53.268;8.308;2022-09-29T13:59:39;4.95;;;4.30;;
37657;SDS011;23500;53.268;8.308;2022-09-29T14:07:48;5.15;;;4.00;;
37657;SDS011;23500;53.268;8.308;2022-09-29T14:10:43;5.00;;;3.80;;
37657;SDS011;23500;53.268;8.308;2022-09-29T14:13:44;6.10;;;4.25;;
37657;SDS011;23500;53.268;8.308;2022-09-29T14:16:37;4.60;;;3.25;;
37657;SDS011;23500;53.268;8.308;2022-09-29T14:19:30;5.22;;;3.67;;
37657;SDS011;23500;53.268;8.308;2022-09-29T14:30:16;4.45;;;3.33;;
37657;SDS011;23500;53.268;8.308;2022-09-29T14:35:33;3.88;;;3.47;;
37657;SDS011;23500;53.268;8.308;2022-09-29T14:38:04;5.75;;;3.60;;
37657;SDS011;23500;53.268;8.308;2022-09-29T14:40:32;5.07;;;3.85;;
37657;SDS011;23500;53.268;8.308;2022-09-29T14:43:16;6.03;;;4.05;;
37657;SDS011;23500;53.268;8.308;2022-09-29T14:48:42;4.50;;;3.83;;
37657;SDS011;23500;53.268;8.308;2022-09-29T14:51:56;24.63;;;16.65;;
37657;SDS011;23500;53.268;8.308;2022-09-29T14:54:49;17.63;;;11.10;;
37657;SDS011;23500;53.268;8.308;2022-09-29T15:02:30;16.20;;;11.73;;
37657;SDS011;23500;53.268;8.308;2022-09-29T15:04:59;20.75;;;14.10;;
37657;SDS011;23500;53.268;8.308;2022-09-29T15:07:35;24.15;;;16.33;;
37657;SDS011;23500;53.268;8.308;2022-09-29T15:10:05;22.42;;;16.92;;
37657;SDS011;23500;53.268;8.308;2022-09-29T15:12:46;24.40;;;17.00;;
37657;SDS011;23500;53.268;8.308;2022-09-29T15:15:26;25.67;;;17.60;;
37657;SDS011;23500;53.268;8.308;2022-09-29T15:17:55;25.45;;;18.05;;
37657;SDS011;23500;53.268;8.308;2022-09-29T15:23:25;27.17;;;19.83;;
37657;SDS011;23500;53.268;8.308;2022-09-29T15:25:54;29.30;;;20.13;;
37657;SDS011;23500;53.268;8.308;2022-09-29T15:28:30;27.38;;;19.77;;
37657;SDS011;23500;53.268;8.308;2022-09-29T15:31:01;29.75;;;20.85;;
37657;SDS011;23500;53.268;8.308;2022-09-29T15:33:35;31.35;;;20.88;;
37657;SDS011;23500;53.268;8.308;2022-09-29T15:36:07;31.73;;;22.08;;
37657;SDS011;23500;53.268;8.308;2022-09-29T15:38:53;29.92;;;21.63;;
37657;SDS011;23500;53.268;8.308;2022-09-29T15:41:31;30.70;;;20.92;;
37657;SDS011;23500;53.268;8.308;2022-09-29T15:43:59;29.98;;;20.27;;
37657;SDS011;23500;53.268;8.308;2022-09-29T15:46:34;31.17;;;22.25;;
37657;SDS011;23500;53.268;8.308;2022-09-29T15:49:04;32.08;;;22.88;;
37657;SDS011;23500;53.268;8.308;2022-09-29T15:51:53;32.00;;;22.20;;
37657;SDS011;23500;53.268;8.308;2022-09-29T15:54:21;27.95;;;21.33;;
37657;SDS011;23500;53.268;8.308;2022-09-29T15:56:47;30.30;;;22.65;;
37657;SDS011;23500;53.268;8.308;2022-09-29T15:59:37;31.90;;;22.63;;
37657;SDS011;23500;53.268;8.308;2022-09-29T16:02:30;30.75;;;22.25;;
37657;SDS011;23500;53.268;8.308;2022-09-29T16:05:09;34.28;;;24.23;;
37657;SDS011;23500;53.268;8.308;2022-09-29T16:07:39;31.63;;;22.80;;
37657;SDS011;23500;53.268;8.308;2022-09-29T16:10:16;32.00;;;23.58;;
37657;SDS011;23500;53.268;8.308;2022-09-29T16:15:46;35.10;;;24.55;;
37657;SDS011;23500;53.268;8.308;2022-09-29T16:18:21;33.35;;;25.27;;
37657;SDS011;23500;53.268;8.308;2022-09-29T16:20:49;31.83;;;24.00;;
37657;SDS011;23500;53.268;8.308;2022-09-29T16:23:27;38.17;;;26.27;;
37657;SDS011;23500;53.268;8.308;2022-09-29T16:28:30;34.00;;;24.98;;
37657;SDS011;23500;53.268;8.308;2022-09-29T16:31:04;33.60;;;25.63;;
37657;SDS011;23500;53.268;8.308;2022-09-29T16:33:51;34.78;;;25.10;;
37657;SDS011;23500;53.268;8.308;2022-09-29T16:36:32;33.72;;;24.67;;
37657;SDS011;23500;53.268;8.308;2022-09-29T16:39:00;34.40;;;24.65;;
37657;SDS011;23500;53.268;8.308;2022-09-29T16:41:29;30.98;;;23.80;;
37657;SDS011;23500;53.268;8.308;2022-09-29T16:46:44;34.40;;;25.25;;
37657;SDS011;23500;53.268;8.308;2022-09-29T16:49:22;35.03;;;26.10;;
37657;SDS011;23500;53.268;8.308;2022-09-29T16:51:53;34.95;;;25.10;;
37657;SDS011;23500;53.268;8.308;2022-09-29T16:54:29;31.70;;;25.58;;
37657;SDS011;23500;53.268;8.308;2022-09-29T16:59:45;36.20;;;27.30;;
37657;SDS011;23500;53.268;8.308;2022-09-29T17:02:17;32.92;;;25.63;;
37657;SDS011;23500;53.268;8.308;2022-09-29T17:04:43;36.45;;;28.55;;
37657;SDS011;23500;53.268;8.308;2022-09-29T17:07:13;37.88;;;30.13;;
37657;SDS011;23500;53.268;8.308;2022-09-29T17:09:40;35.70;;;26.92;;
37657;SDS011;23500;53.268;8.308;2022-09-29T17:12:11;37.50;;;28.83;;
37657;SDS011;23500;53.268;8.308;2022-09-29T17:14:38;35.38;;;28.38;;
37657;SDS011;23500;53.268;8.308;2022-09-29T17:17:04;35.97;;;29.85;;
37657;SDS011;23500;53.268;8.308;2022-09-29T17:19:29;36.67;;;30.85;;
37657;SDS011;23500;53.268;8.308;2022-09-29T17:21:55;37.58;;;30.42;;
37657;SDS011;23500;53.268;8.308;2022-09-29T17:24:22;36.20;;;30.38;;
37657;SDS011;23500;53.268;8.308;2022-09-29T17:26:48;36.60;;;30.65;;
37657;SDS011;23500;53.268;8.308;2022-09-29T17:29:32;35.33;;;30.75;;
37657;SDS011;23500;53.268;8.308;2022-09-29T17:32:00;36.42;;;30.90;;
37657;SDS011;23500;53.268;8.308;2022-09-29T17:34:26;36.55;;;30.27;;
37657;SDS011;23500;53.268;8.308;2022-09-29T17:36:57;36.40;;;30.17;;
37657;SDS011;23500;53.268;8.308;2022-09-29T17:39:26;36.70;;;32.05;;
37657;SDS011;23500;53.268;8.308;2022-09-29T17:41:52;37.20;;;31.27;;
37657;SDS011;23500;53.268;8.308;2022-09-29T17:44:18;38.60;;;31.83;;
37657;SDS011;23500;53.268;8.308;2022-09-29T17:46:43;39.53;;;31.63;;
37657;SDS011;23500;53.268;8.308;2022-09-29T17:49:10;36.78;;;31.08;;
37657;SDS011;23500;53.268;8.308;2022-09-29T17:51:37;38.47;;;30.85;;
37657;SDS011;23500;53.268;8.308;2022-09-29T17:54:03;37.65;;;31.30;;
37657;SDS011;23500;53.268;8.308;2022-09-29T17:56:29;39.08;;;32.03;;
37657;SDS011;23500;53.268;8.308;2022-09-29T17:59:01;35.08;;;30.15;;
37657;SDS011;23500;53.268;8.308;2022-09-29T18:01:29;39.88;;;31.33;;
37657;SDS011;23500;53.268;8.308;2022-09-29T18:04:00;36.70;;;31.00;;
37657;SDS011;23500;53.268;8.308;2022-09-29T18:06:26;36.35;;;30.90;;
37657;SDS011;23500;53.268;8.308;2022-09-29T18:08:53;33.00;;;29.27;;
37657;SDS011;23500;53.268;8.308;2022-09-29T18:11:23;34.85;;;29.58;;
37657;SDS011;23500;53.268;8.308;2022-09-29T18:13:50;33.90;;;30.08;;
37657;SDS011;23500;53.268;8.308;2022-09-29T18:16:20;36.03;;;30.48;;
37657;SDS011;23500;53.268;8.308;2022-09-29T18:18:47;35.35;;;30.05;;
37657;SDS011;23500;53.268;8.308;2022-09-29T18:21:13;33.80;;;29.80;;
37657;SDS011;23500;53.268;8.308;2022-09-29T18:23:44;36.20;;;30.13;;
37657;SDS011;23500;53.268;8.308;2022-09-29T18:26:10;33.67;;;29.05;;
37657;SDS011;23500;53.268;8.308;2022-09-29T18:28:38;35.92;;;29.98;;